Time;durP1;ratioP1;P1;durP2;ratioP2;P2;SDS_P1;SDS_P2;PMS_P1;PMS_P2;Temp;Humidity;BMP_temperature;BMP_pressure;BME280_temperature;BME280_humidity;BME280_pressure;Samples;Min_cycle;Max_cycle;Signal;HPM_P1;HPM_P2
2022/05/17 00:01:05;;;;;;;14.17;4.50;;;15.20;99.90;;;;;;4969514;28;20228;-81
2022/05/17 00:03:31;;;;;;;10.83;4.23;;;15.20;99.90;;;;;;4967476;28;20204;-83
2022/05/17 00:05:58;;;;;;;14.13;4.80;;;15.20;99.90;;;;;;4968338;28;20212;-82
2022/05/17 00:08:26;;;;;;;13.93;4.60;;;15.10;99.90;;;;;;4968761;28;20213;-83
2022/05/17 00:10:53;;;;;;;11.93;4.40;;;15.20;99.90;;;;;;4967954;28;20215;-83
2022/05/17 00:13:20;;;;;;;12.20;5.03;;;15.10;99.90;;;;;;4968068;28;20239;-82
2022/05/17 00:15:51;;;;;;;13.30;4.33;;;15.10;99.90;;;;;;4968656;28;20212;-83
2022/05/17 00:18:19;;;;;;;9.70;4.87;;;15.10;99.90;;;;;;4967939;28;20215;-82
2022/05/17 00:20:46;;;;;;;14.90;5.40;;;15.10;99.90;;;;;;4968037;28;20322;-82
2022/05/17 00:23:15;;;;;;;17.60;6.07;;;15.10;99.90;;;;;;4968963;28;20207;-81
2022/05/17 00:25:44;;;;;;;15.70;6.33;;;15.10;99.90;;;;;;4968128;28;20204;-83
2022/05/17 00:28:10;;;;;;;16.93;6.90;;;15.10;99.90;;;;;;4968369;28;20216;-83
2022/05/17 00:30:37;;;;;;;18.43;7.57;;;15.10;99.90;;;;;;4969353;28;20209;-82
2022/05/17 00:33:04;;;;;;;16.77;7.37;;;15.10;99.90;;;;;;4968343;28;20209;-82
2022/05/17 00:35:31;;;;;;;16.63;6.60;;;15.10;99.90;;;;;;4968919;28;20831;-82
2022/05/17 00:37:58;;;;;;;21.33;6.63;;;15.10;99.90;;;;;;4968733;28;20236;-83
2022/05/17 00:40:25;;;;;;;15.43;6.13;;;15.10;99.90;;;;;;4968479;28;20225;-84
2022/05/17 00:42:53;;;;;;;15.07;6.40;;;15.10;99.90;;;;;;4967442;28;20205;-82
2022/05/17 00:45:20;;;;;;;21.53;6.73;;;15.10;99.90;;;;;;4985917;28;20223;-81
2022/05/17 00:47:51;;;;;;;24.70;7.43;;;15.00;99.90;;;;;;4987172;28;20243;-81
2022/05/17 00:50:27;;;;;;;16.97;6.23;;;15.00;99.90;;;;;;4987150;28;20377;-82
2022/05/17 00:52:59;;;;;;;15.33;7.33;;;14.90;99.90;;;;;;4978111;28;20230;-82
2022/05/17 00:55:31;;;;;;;22.00;7.07;;;15.00;99.90;;;;;;4968072;28;20205;-82
2022/05/17 00:58:03;;;;;;;18.30;7.33;;;15.00;99.90;;;;;;4968509;28;20201;-81
2022/05/17 01:00:34;;;;;;;18.77;7.30;;;14.90;99.90;;;;;;4968110;28;20519;-82
2022/05/17 01:03:05;;;;;;;22.27;8.20;;;14.90;99.90;;;;;;4967689;28;20223;-81
2022/05/17 01:05:35;;;;;;;24.70;8.63;;;14.90;99.90;;;;;;4968185;28;20201;-82
2022/05/17 01:08:02;;;;;;;16.73;7.67;;;14.90;99.90;;;;;;4966581;28;20631;-80
2022/05/17 01:10:31;;;;;;;22.10;7.57;;;14.90;99.90;;;;;;4968662;28;20201;-82
2022/05/17 01:15:45;;;;;;;19.30;7.40;;;14.90;99.90;;;;;;4982745;28;20227;-82
2022/05/17 01:18:12;;;;;;;14.87;6.17;;;15.00;99.90;;;;;;4966230;28;20231;-81
2022/05/17 01:20:39;;;;;;;16.03;7.23;;;15.00;99.90;;;;;;4968035;28;20233;-81
2022/05/17 01:23:08;;;;;;;16.80;6.93;;;15.00;99.90;;;;;;4968689;28;20762;-83
2022/05/17 01:25:35;;;;;;;21.87;7.17;;;15.00;99.90;;;;;;4968777;28;20228;-81
2022/05/17 01:28:06;;;;;;;15.83;6.20;;;15.00;99.90;;;;;;4968072;28;20209;-84
2022/05/17 01:30:33;;;;;;;17.80;6.33;;;15.00;99.90;;;;;;4967944;28;20653;-81
2022/05/17 01:32:59;;;;;;;11.80;4.70;;;15.00;99.90;;;;;;4968159;28;20632;-83
2022/05/17 01:35:26;;;;;;;10.03;4.13;;;15.00;99.90;;;;;;4967104;28;20201;-84
2022/05/17 01:37:56;;;;;;;14.37;4.67;;;15.00;99.90;;;;;;4971290;28;20224;-81
2022/05/17 01:40:25;;;;;;;10.80;4.13;;;15.00;99.90;;;;;;4970989;28;20704;-80
2022/05/17 01:42:53;;;;;;;14.73;5.73;;;14.90;99.90;;;;;;4971252;28;20864;-84
2022/05/17 01:45:19;;;;;;;14.87;5.50;;;14.90;99.90;;;;;;4990339;28;20619;-81
2022/05/17 01:47:46;;;;;;;14.40;4.90;;;14.90;99.90;;;;;;4989756;28;20662;-83
2022/05/17 01:50:13;;;;;;;12.57;5.20;;;14.90;99.90;;;;;;4989900;28;20208;-82
2022/05/17 01:52:40;;;;;;;13.97;5.33;;;14.90;99.90;;;;;;4990745;28;20218;-82
2022/05/17 01:55:08;;;;;;;17.30;5.30;;;14.90;99.90;;;;;;4990349;28;20601;-82
2022/05/17 01:57:36;;;;;;;12.23;5.40;;;14.80;99.90;;;;;;4975420;28;20339;-82
2022/05/17 02:00:04;;;;;;;16.40;5.77;;;14.80;99.90;;;;;;4971466;28;20239;-82
2022/05/17 02:02:31;;;;;;;13.40;5.33;;;14.80;99.90;;;;;;4971450;28;20232;-83
2022/05/17 02:04:58;;;;;;;12.77;6.30;;;14.80;99.90;;;;;;4970974;28;20209;-82
2022/05/17 02:07:25;;;;;;;17.50;6.13;;;14.80;99.90;;;;;;4983833;28;20786;-82
2022/05/17 02:09:52;;;;;;;17.03;6.73;;;14.70;99.90;;;;;;4991042;28;20587;-81
2022/05/17 02:12:19;;;;;;;16.13;6.63;;;14.70;99.90;;;;;;4991035;28;20507;-82
2022/05/17 02:14:47;;;;;;;20.70;6.87;;;14.70;99.90;;;;;;4986856;28;20565;-82
2022/05/17 02:17:14;;;;;;;17.63;7.63;;;14.70;99.90;;;;;;4970867;28;20227;-81
2022/05/17 02:19:41;;;;;;;20.80;7.03;;;14.60;99.90;;;;;;4983563;28;20323;-82
2022/05/17 02:22:08;;;;;;;16.53;6.57;;;14.60;99.90;;;;;;4990877;28;20212;-83
2022/05/17 02:24:35;;;;;;;12.07;5.60;;;14.60;99.90;;;;;;4990542;28;20726;-83
2022/05/17 02:27:02;;;;;;;20.17;5.63;;;14.60;99.90;;;;;;4981493;28;20212;-81
2022/05/17 02:29:30;;;;;;;10.90;4.43;;;14.60;99.90;;;;;;4972329;28;20235;-83
2022/05/17 02:31:59;;;;;;;16.20;5.47;;;14.60;99.90;;;;;;4970432;28;20204;-84
2022/05/17 02:34:26;;;;;;;19.63;5.80;;;14.60;99.90;;;;;;4972027;28;20624;-83
2022/05/17 02:36:53;;;;;;;13.17;6.00;;;14.60;99.90;;;;;;4971020;28;20204;-83
2022/05/17 02:39:20;;;;;;;11.70;5.20;;;14.60;99.90;;;;;;4970231;28;20220;-82
2022/05/17 02:41:46;;;;;;;14.40;5.90;;;14.60;99.90;;;;;;4971033;28;20271;-84
2022/05/17 02:44:14;;;;;;;14.10;6.13;;;14.60;99.90;;;;;;4970876;28;20212;-82
2022/05/17 02:46:41;;;;;;;12.27;5.13;;;14.60;99.90;;;;;;4969502;28;20255;-83
2022/05/17 02:49:09;;;;;;;12.20;5.23;;;14.60;99.90;;;;;;4970368;28;20577;-82
2022/05/17 02:51:36;;;;;;;17.50;5.90;;;14.60;99.90;;;;;;4969184;28;20854;-83
2022/05/17 02:54:06;;;;;;;19.30;5.77;;;14.60;99.90;;;;;;4967797;28;20209;-83
2022/05/17 02:56:33;;;;;;;12.47;4.43;;;14.60;99.90;;;;;;4970151;28;20201;-81
2022/05/17 02:58:59;;;;;;;10.87;4.90;;;14.60;99.90;;;;;;4969465;28;20298;-82
2022/05/17 03:01:27;;;;;;;15.90;5.33;;;14.70;99.90;;;;;;4970342;28;20228;-82
2022/05/17 03:03:53;;;;;;;11.30;5.60;;;14.60;99.90;;;;;;4970464;28;20211;-81
2022/05/17 03:06:22;;;;;;;13.30;4.73;;;14.60;99.90;;;;;;4970157;28;20212;-82
2022/05/17 03:08:49;;;;;;;14.10;5.70;;;14.60;99.90;;;;;;4970408;28;20558;-80
2022/05/17 03:11:16;;;;;;;11.63;5.40;;;14.60;99.90;;;;;;4968288;28;20208;-81
2022/05/17 03:13:42;;;;;;;14.03;6.03;;;14.60;99.90;;;;;;4968734;28;20244;-82
2022/05/17 03:16:10;;;;;;;12.17;5.70;;;14.60;99.90;;;;;;4969939;28;20212;-83
2022/05/17 03:18:39;;;;;;;14.73;6.10;;;14.60;99.90;;;;;;4970146;28;20839;-83
2022/05/17 03:21:06;;;;;;;17.03;6.57;;;14.60;99.90;;;;;;4968857;28;20239;-84
2022/05/17 03:23:35;;;;;;;14.43;6.17;;;14.60;99.90;;;;;;4969500;28;20216;-83
2022/05/17 03:26:02;;;;;;;14.07;6.30;;;14.60;99.90;;;;;;4969118;28;20640;-80
2022/05/17 03:28:29;;;;;;;15.97;6.80;;;14.60;99.90;;;;;;4969201;28;20216;-82
2022/05/17 03:30:56;;;;;;;15.10;5.57;;;14.60;99.90;;;;;;4969328;28;20208;-81
2022/05/17 03:33:22;;;;;;;14.87;5.73;;;14.60;99.90;;;;;;4969683;28;20260;-83
2022/05/17 03:35:49;;;;;;;12.88;5.90;;;14.60;99.90;;;;;;4968620;28;20212;-80
2022/05/17 03:38:16;;;;;;;15.63;5.50;;;14.60;99.90;;;;;;4968731;28;20224;-82
2022/05/17 03:40:44;;;;;;;15.43;5.80;;;14.60;99.90;;;;;;4968803;28;20216;-82
2022/05/17 03:43:11;;;;;;;16.70;5.57;;;14.60;99.90;;;;;;4968457;28;20208;-86
2022/05/17 03:45:38;;;;;;;12.57;5.37;;;14.60;99.90;;;;;;4968698;28;20581;-83
2022/05/17 03:48:06;;;;;;;11.07;5.40;;;14.70;99.90;;;;;;4968567;28;20323;-82
2022/05/17 03:50:33;;;;;;;15.27;5.20;;;14.70;99.90;;;;;;4982819;28;20212;-86
2022/05/17 03:53:01;;;;;;;12.60;5.90;;;14.70;99.90;;;;;;4987770;28;20611;-83
2022/05/17 03:55:28;;;;;;;11.60;5.20;;;14.70;99.90;;;;;;4984158;28;20290;-83
2022/05/17 03:57:56;;;;;;;11.03;4.80;;;14.70;99.90;;;;;;4968366;28;20215;-82
2022/05/17 04:00:24;;;;;;;13.40;5.27;;;14.80;99.90;;;;;;4967949;28;20224;-81
2022/05/17 04:02:50;;;;;;;14.40;5.30;;;14.80;99.90;;;;;;4967601;28;20211;-83
2022/05/17 04:05:18;;;;;;;12.73;5.30;;;14.80;99.90;;;;;;4983350;28;20667;-81
2022/05/17 04:07:45;;;;;;;10.23;4.97;;;14.80;99.90;;;;;;4987917;28;20507;-80
2022/05/17 04:10:14;;;;;;;11.47;5.50;;;14.80;99.90;;;;;;4976586;28;20658;-82
2022/05/17 04:12:41;;;;;;;14.87;6.07;;;14.80;99.90;;;;;;4969265;28;20504;-84
2022/05/17 04:15:12;;;;;;;12.30;5.63;;;14.90;99.90;;;;;;4968797;28;20209;-85
2022/05/17 04:17:39;;;;;;;14.50;5.63;;;14.90;99.90;;;;;;4968982;28;20208;-82
2022/05/17 04:20:07;;;;;;;10.07;4.97;;;14.90;99.90;;;;;;4988185;28;20227;-82
2022/05/17 04:22:34;;;;;;;10.07;4.97;;;14.90;99.90;;;;;;4987841;28;20203;-81
2022/05/17 04:25:01;;;;;;;11.93;5.03;;;15.00;99.90;;;;;;4973584;28;20212;-82
2022/05/17 04:27:28;;;;;;;13.80;4.20;;;15.00;99.90;;;;;;4971304;28;20207;-85
2022/05/17 04:29:55;;;;;;;11.90;3.47;;;15.00;99.90;;;;;;4987919;28;20215;-82
2022/05/17 04:32:23;;;;;;;6.70;3.03;;;15.10;99.90;;;;;;4987509;28;20294;-82
2022/05/17 04:34:50;;;;;;;10.30;3.17;;;15.10;99.90;;;;;;4986988;28;20192;-82
2022/05/17 04:37:17;;;;;;;10.30;3.13;;;15.10;99.90;;;;;;4969800;28;20205;-83
2022/05/17 04:39:43;;;;;;;10.77;3.83;;;15.10;99.90;;;;;;4968537;28;20780;-83
2022/05/17 04:42:11;;;;;;;6.23;3.07;;;15.20;99.90;;;;;;4968646;28;20225;-81
2022/05/17 04:44:38;;;;;;;14.83;4.33;;;15.20;99.90;;;;;;4967257;28;20219;-82
2022/05/17 04:47:07;;;;;;;13.37;4.67;;;15.20;99.90;;;;;;4967830;28;20239;-83
2022/05/17 04:49:36;;;;;;;10.50;3.63;;;15.20;99.90;;;;;;4969561;28;20201;-85
2022/05/17 04:52:04;;;;;;;15.67;4.97;;;15.30;99.90;;;;;;4970012;28;20299;-85
2022/05/17 04:54:31;;;;;;;11.80;4.07;;;15.30;99.90;;;;;;4981435;28;20212;-83
2022/05/17 04:56:57;;;;;;;9.33;3.60;;;15.40;99.90;;;;;;4990052;28;20210;-84
2022/05/17 04:59:24;;;;;;;12.70;3.87;;;15.40;99.90;;;;;;4986591;28;20212;-84
2022/05/17 05:01:51;;;;;;;16.50;4.07;;;15.50;99.90;;;;;;4970025;28;20229;-84
2022/05/17 05:04:18;;;;;;;14.33;3.93;;;15.50;99.90;;;;;;4979702;28;20218;-84
2022/05/17 05:06:47;;;;;;;13.83;4.10;;;15.60;99.90;;;;;;4988625;28;20207;-85
2022/05/17 05:09:14;;;;;;;11.02;3.80;;;15.60;99.90;;;;;;4979959;28;20223;-86
2022/05/17 05:11:41;;;;;;;9.07;3.80;;;15.70;99.90;;;;;;4971006;28;20239;-82
2022/05/17 05:14:09;;;;;;;11.77;4.00;;;15.70;99.90;;;;;;4971597;28;20201;-85
2022/05/17 05:16:37;;;;;;;13.63;4.30;;;15.80;99.90;;;;;;4972673;28;20510;-82
2022/05/17 05:19:04;;;;;;;9.97;3.57;;;15.80;99.90;;;;;;4972716;28;20209;-82
2022/05/17 05:21:31;;;;;;;13.50;3.97;;;15.90;99.90;;;;;;4974252;28;20220;-84
2022/05/17 05:24:00;;;;;;;11.10;4.38;;;16.00;99.90;;;;;;4973397;28;20812;-84
2022/05/17 05:26:27;;;;;;;12.30;3.28;;;16.10;99.90;;;;;;4972724;28;20208;-83
2022/05/17 05:28:54;;;;;;;11.75;2.88;;;16.10;99.90;;;;;;4971977;28;20216;-82
2022/05/17 05:31:20;;;;;;;11.48;3.63;;;16.10;99.90;;;;;;4972918;28;20264;-82
2022/05/17 05:33:47;;;;;;;9.75;2.80;;;16.10;99.90;;;;;;4972255;28;20205;-81
2022/05/17 05:36:14;;;;;;;12.07;3.65;;;16.20;99.90;;;;;;4973700;28;20219;-84
2022/05/17 05:38:44;;;;;;;12.10;3.83;;;16.20;99.90;;;;;;4972752;28;20316;-81
2022/05/17 05:41:14;;;;;;;13.25;4.18;;;16.20;99.90;;;;;;4971909;28;20587;-84
2022/05/17 05:43:41;;;;;;;14.48;5.28;;;16.30;99.90;;;;;;4972474;28;20588;-80
2022/05/17 05:46:11;;;;;;;13.73;4.80;;;16.30;99.90;;;;;;4972941;28;20201;-82
2022/05/17 05:48:38;;;;;;;15.60;4.53;;;16.30;99.90;;;;;;4972235;28;20322;-81
2022/05/17 05:51:05;;;;;;;11.75;3.40;;;16.30;99.90;;;;;;4972817;28;20287;-81
2022/05/17 05:53:39;;;;;;;13.38;4.68;;;16.40;99.90;;;;;;4973604;28;20299;-83
2022/05/17 05:56:06;;;;;;;10.05;4.75;;;16.40;99.90;;;;;;4973175;28;20499;-83
2022/05/17 05:58:36;;;;;;;10.68;3.25;;;16.40;99.90;;;;;;4980386;28;20295;-83
2022/05/17 06:01:03;;;;;;;10.30;3.47;;;16.40;99.90;;;;;;4981122;28;20236;-83
2022/05/17 06:03:30;;;;;;;12.20;3.35;;;16.40;99.90;;;;;;4975311;28;20204;-84
2022/05/17 06:05:57;;;;;;;7.78;3.28;;;16.40;99.90;;;;;;4972493;28;20259;-82
2022/05/17 06:08:24;;;;;;;13.68;3.30;;;16.50;99.90;;;;;;4971878;28;20231;-84
2022/05/17 06:10:51;;;;;;;10.93;3.35;;;16.50;99.90;;;;;;4971225;28;20227;-83
2022/05/17 06:13:19;;;;;;;9.80;3.10;;;16.60;99.90;;;;;;4971095;28;20209;-81
2022/05/17 06:15:48;;;;;;;10.18;3.30;;;16.70;99.90;;;;;;4971357;28;20204;-84
2022/05/17 06:18:15;;;;;;;10.52;2.70;;;16.90;99.90;;;;;;4970853;28;20217;-84
2022/05/17 06:20:42;;;;;;;11.30;3.72;;;17.00;99.90;;;;;;4971344;28;20208;-82
2022/05/17 06:23:10;;;;;;;9.63;3.22;;;17.10;99.90;;;;;;4970716;28;20215;-84
2022/05/17 06:25:37;;;;;;;8.48;3.20;;;17.10;99.90;;;;;;4970599;28;20209;-82
2022/05/17 06:28:04;;;;;;;11.05;4.10;;;17.20;99.90;;;;;;4971075;28;20225;-84
2022/05/17 06:30:31;;;;;;;11.10;4.78;;;17.30;99.90;;;;;;4971563;28;20300;-86
2022/05/17 06:33:01;;;;;;;15.48;5.20;;;17.40;99.90;;;;;;4971427;28;20295;-82
2022/05/17 06:35:28;;;;;;;11.05;4.85;;;17.50;99.90;;;;;;4971509;28;20220;-83
2022/05/17 06:37:55;;;;;;;20.55;5.57;;;17.60;99.90;;;;;;4969769;28;20231;-84
2022/05/17 06:40:22;;;;;;;14.85;4.40;;;17.70;99.90;;;;;;4970140;28;20212;-81
2022/05/17 06:42:49;;;;;;;13.18;3.72;;;17.70;99.90;;;;;;4969663;28;20635;-80
2022/05/17 06:45:16;;;;;;;12.85;3.92;;;17.80;99.90;;;;;;4970650;28;20600;-87
2022/05/17 06:47:43;;;;;;;13.95;3.80;;;18.00;99.90;;;;;;4982612;28;20278;-86
2022/05/17 06:50:12;;;;;;;9.95;3.88;;;18.00;99.90;;;;;;4970018;28;20209;-83
2022/05/17 06:52:39;;;;;;;17.48;4.90;;;18.00;99.90;;;;;;4970441;28;20228;-82
2022/05/17 06:55:09;;;;;;;12.40;4.65;;;18.00;99.90;;;;;;4989946;28;20199;-82
2022/05/17 06:57:37;;;;;;;11.88;4.30;;;18.00;99.90;;;;;;4981501;28;20243;-84
2022/05/17 07:00:05;;;;;;;14.18;3.63;;;18.00;99.90;;;;;;4970573;28;20201;-83
2022/05/17 07:02:33;;;;;;;6.35;3.05;;;17.90;99.90;;;;;;4970560;28;20228;-83
2022/05/17 07:04:59;;;;;;;14.85;4.85;;;17.90;99.90;;;;;;4971233;28;20603;-81
2022/05/17 07:07:28;;;;;;;13.50;4.75;;;17.90;99.90;;;;;;4970762;28;20232;-84
2022/05/17 07:15:26;;;;;;;15.20;5.65;;;18.10;99.90;;;;;;4987751;28;20199;-87
2022/05/17 07:17:53;;;;;;;12.02;4.90;;;18.20;99.90;;;;;;4969858;28;20378;-83
2022/05/17 07:20:20;;;;;;;17.17;5.45;;;18.20;99.90;;;;;;4970280;28;20384;-81
2022/05/17 07:22:48;;;;;;;13.13;5.05;;;18.30;99.90;;;;;;4970270;28;20251;-87
2022/05/17 07:25:14;;;;;;;13.88;5.18;;;18.50;99.90;;;;;;4967997;28;20217;-81
2022/05/17 07:27:41;;;;;;;14.55;4.90;;;18.70;99.90;;;;;;4968764;28;20798;-84
2022/05/17 07:30:09;;;;;;;9.52;4.32;;;18.90;99.90;;;;;;4969287;28;20217;-80
2022/05/17 07:32:36;;;;;;;9.27;2.97;;;19.20;99.90;;;;;;4967970;28;20197;-81
2022/05/17 07:35:03;;;;;;;8.35;2.97;;;19.50;99.90;;;;;;4969178;28;20204;-82
2022/05/17 07:37:30;;;;;;;9.68;2.83;;;19.80;99.90;;;;;;4970560;28;20288;-82
2022/05/17 07:39:58;;;;;;;8.00;2.33;;;19.90;99.90;;;;;;4968954;28;20207;-84
2022/05/17 07:42:25;;;;;;;5.35;2.80;;;19.90;99.90;;;;;;4970703;28;20233;-87
2022/05/17 07:44:52;;;;;;;5.95;2.38;;;19.90;99.90;;;;;;4970376;28;20254;-83
2022/05/17 07:47:19;;;;;;;5.57;2.50;;;19.80;99.90;;;;;;4968671;28;20302;-81
2022/05/17 07:49:46;;;;;;;7.03;2.25;;;19.80;99.90;;;;;;4970698;28;20296;-87
2022/05/17 07:52:13;;;;;;;4.88;1.88;;;19.80;99.90;;;;;;4970771;28;20201;-86
2022/05/17 07:54:41;;;;;;;4.35;1.77;;;19.80;99.90;;;;;;4970775;28;20259;-86
2022/05/17 07:57:09;;;;;;;8.00;2.45;;;19.80;99.90;;;;;;4969712;28;20208;-84
2022/05/17 07:59:36;;;;;;;7.45;2.08;;;19.80;99.90;;;;;;4969138;28;20204;-83
2022/05/17 08:02:03;;;;;;;7.18;2.30;;;19.80;99.90;;;;;;4969380;28;20239;-86
2022/05/17 08:04:31;;;;;;;8.52;1.85;;;19.90;99.90;;;;;;4970795;28;20220;-83
2022/05/17 08:06:58;;;;;;;5.57;1.73;;;20.00;99.90;;;;;;4970317;28;20675;-82
2022/05/17 08:09:25;;;;;;;8.85;2.60;;;20.10;99.90;;;;;;4971002;28;20201;-88
2022/05/17 08:11:52;;;;;;;10.70;2.78;;;20.20;99.90;;;;;;4971080;28;20200;-84
2022/05/17 08:14:20;;;;;;;9.18;1.85;;;20.20;99.90;;;;;;4969521;28;20208;-83
2022/05/17 08:16:47;;;;;;;4.50;1.88;;;20.30;99.90;;;;;;4967480;28;20571;-81
2022/05/17 08:19:14;;;;;;;9.73;2.20;;;20.30;99.90;;;;;;4970489;28;20227;-85
2022/05/17 08:21:41;;;;;;;8.45;2.63;;;20.30;99.90;;;;;;4971767;28;20287;-84
2022/05/17 08:24:09;;;;;;;8.02;2.42;;;20.30;99.90;;;;;;4971347;28;20193;-87
2022/05/17 08:29:21;;;;;;;6.38;1.98;;;20.30;99.90;;;;;;4971970;28;20760;-86
2022/05/17 08:34:29;;;;;;;4.78;1.70;;;20.30;99.90;;;;;;4979692;28;20246;-84
2022/05/17 08:36:56;;;;;;;6.93;1.92;;;20.30;99.90;;;;;;4991770;28;20215;-85
2022/05/17 08:39:23;;;;;;;6.50;1.73;;;20.20;99.90;;;;;;4991595;28;20200;-84
2022/05/17 08:41:54;;;;;;;4.93;1.52;;;20.20;99.90;;;;;;4991883;28;20231;-83
2022/05/17 08:44:37;;;;;;;6.80;2.20;;;20.20;99.90;;;;;;4989051;28;20232;-86
2022/05/17 08:47:09;;;;;;;8.10;2.30;;;20.20;99.90;;;;;;4974178;28;20244;-82
2022/05/17 08:49:42;;;;;;;8.43;2.17;;;20.30;99.90;;;;;;4972873;28;20197;-85
2022/05/17 08:52:12;;;;;;;7.72;2.03;;;20.20;99.90;;;;;;4982070;28;20543;-84
2022/05/17 08:54:42;;;;;;;8.88;2.50;;;20.00;99.90;;;;;;4992835;28;20231;-88
2022/05/17 08:57:21;;;;;;;6.75;1.98;;;20.00;99.90;;;;;;4993125;28;20192;-89
2022/05/17 08:59:49;;;;;;;5.47;2.05;;;20.00;99.90;;;;;;4978799;28;20205;-91
2022/05/17 09:02:21;;;;;;;6.15;1.80;;;19.90;99.90;;;;;;4975784;28;20567;-85
2022/05/17 09:05:02;;;;;;;5.90;1.73;;;20.00;99.90;;;;;;4989015;23;20243;-85
2022/05/17 09:07:38;;;;;;;6.97;2.70;;;19.90;99.90;;;;;;4984315;28;20208;-85
2022/05/17 09:10:09;;;;;;;3.80;1.83;;;20.10;99.90;;;;;;4975379;28;20204;-88
2022/05/17 09:12:46;;;;;;;6.93;2.30;;;20.10;99.90;;;;;;4974274;28;20204;-85
2022/05/17 09:15:16;;;;;;;5.60;1.70;;;20.20;99.90;;;;;;4974623;28;20205;-85
2022/05/17 09:17:44;;;;;;;10.20;2.35;;;20.40;99.90;;;;;;4972558;28;20205;-84
2022/05/17 09:20:15;;;;;;;8.82;2.45;;;20.50;99.90;;;;;;4974280;28;20289;-87
2022/05/17 09:22:42;;;;;;;7.68;2.03;;;20.50;99.90;;;;;;4975051;28;20220;-84
2022/05/17 09:25:17;;;;;;;9.73;2.25;;;20.60;99.90;;;;;;4988190;28;20211;-86
2022/05/17 09:27:48;;;;;;;8.93;2.10;;;20.70;99.90;;;;;;4991301;28;20199;-85
2022/05/17 09:30:33;;;;;;;11.10;2.25;;;20.80;99.90;;;;;;4989490;28;20408;-84
2022/05/17 09:33:06;;;;;;;8.85;2.47;;;20.80;99.90;;;;;;4970594;28;20213;-87
2022/05/17 09:35:41;;;;;;;7.10;2.13;;;20.80;99.90;;;;;;4971744;28;20208;-84
2022/05/17 09:38:09;;;;;;;7.15;2.20;;;20.90;99.90;;;;;;4971649;28;20228;-84
2022/05/17 09:40:40;;;;;;;6.10;2.03;;;21.00;99.90;;;;;;4969903;28;20232;-84
2022/05/17 09:43:09;;;;;;;7.50;2.13;;;21.00;99.90;;;;;;4992290;23;20243;-85
2022/05/17 09:45:48;;;;;;;8.45;2.38;;;21.00;99.90;;;;;;4987574;28;20223;-85
2022/05/17 09:48:28;;;;;;;8.68;1.98;;;21.10;99.90;;;;;;4989889;28;20196;-84
2022/05/17 09:53:42;;;;;;;9.07;2.53;;;21.10;99.90;;;;;;4991059;28;20431;-88
2022/05/17 09:56:09;;;;;;;8.82;2.60;;;20.90;99.90;;;;;;4992429;28;20552;-86
2022/05/17 09:58:38;;;;;;;5.35;2.00;;;21.00;99.90;;;;;;4995181;28;20212;-87
2022/05/17 10:01:14;;;;;;;5.20;2.28;;;21.10;99.90;;;;;;4993616;28;20208;-84
2022/05/17 10:03:42;;;;;;;5.75;2.00;;;21.30;99.90;;;;;;4997802;28;20225;-88
2022/05/17 10:06:14;;;;;;;6.75;2.40;;;21.50;99.90;;;;;;4973834;28;20212;-85
2022/05/17 10:08:44;;;;;;;6.13;2.60;;;21.80;99.90;;;;;;4971388;28;20216;-87
2022/05/17 10:11:18;;;;;;;7.97;2.65;;;22.10;99.90;;;;;;4972384;28;20193;-88
2022/05/17 10:13:59;;;;;;;10.05;2.47;;;22.30;99.90;;;;;;4985790;28;20207;-86
2022/05/17 10:16:36;;;;;;;7.78;2.70;;;22.40;99.90;;;;;;4989813;28;20303;-88
2022/05/17 10:19:10;;;;;;;7.05;2.55;;;22.50;99.90;;;;;;4972975;28;20211;-84
2022/05/17 10:21:42;;;;;;;10.27;2.50;;;22.80;99.90;;;;;;4971656;28;20209;-88
2022/05/17 10:24:19;;;;;;;7.13;2.38;;;22.80;99.90;;;;;;4973064;28;20237;-86
2022/05/17 10:26:51;;;;;;;7.82;2.40;;;23.10;99.90;;;;;;4986093;28;20211;-87
2022/05/17 10:29:28;;;;;;;8.73;2.55;;;23.30;99.90;;;;;;4992631;28;20198;-88
2022/05/17 10:32:02;;;;;;;8.15;2.47;;;23.40;99.90;;;;;;4981202;28;20208;-85
2022/05/17 10:34:40;;;;;;;7.95;2.50;;;23.60;99.90;;;;;;4973358;28;20246;-87
2022/05/17 10:37:14;;;;;;;5.47;2.30;;;23.90;99.90;;;;;;4974664;28;20207;-87
2022/05/17 10:39:48;;;;;;;6.38;2.33;;;24.20;99.90;;;;;;4975832;28;20668;-84
2022/05/17 10:42:15;;;;;;;7.60;2.58;;;24.00;99.90;;;;;;4975197;28;20236;-88
2022/05/17 10:44:45;;;;;;;8.85;2.70;;;24.10;99.90;;;;;;4974653;28;20212;-85
2022/05/17 10:47:35;;;;;;;7.90;2.53;;;24.40;99.90;;;;;;4973478;28;20262;-88
2022/05/17 10:50:20;;;;;;;7.88;2.53;;;24.50;99.90;;;;;;4987433;28;20220;-86
2022/05/17 10:52:58;;;;;;;8.57;2.45;;;24.80;99.90;;;;;;4991238;28;20199;-85
2022/05/17 10:55:30;;;;;;;6.97;2.33;;;25.00;99.90;;;;;;4992509;28;20207;-86
2022/05/17 10:58:01;;;;;;;11.68;3.30;;;25.30;99.90;;;;;;4979248;28;20211;-88
2022/05/17 11:00:33;;;;;;;7.32;2.92;;;25.50;99.90;;;;;;4971839;28;20209;-86
2022/05/17 11:03:31;;;;;;;7.53;3.10;;;25.70;99.90;;;;;;4971633;28;20229;-87
2022/05/17 11:06:13;;;;;;;9.27;3.25;;;26.10;99.90;;;;;;4973703;28;20212;-88
2022/05/17 11:08:52;;;;;;;4.93;2.60;;;26.20;99.90;;;;;;4973911;28;20208;-87
2022/05/17 11:11:37;;;;;;;7.95;3.08;;;26.40;99.90;;;;;;4979985;28;20215;-85
2022/05/17 11:14:10;;;;;;;8.60;2.80;;;26.20;99.90;;;;;;4993925;28;20204;-88
2022/05/17 11:16:41;;;;;;;8.48;2.63;;;26.60;99.90;;;;;;4993413;28;20208;-87
2022/05/17 11:19:18;;;;;;;5.97;2.50;;;27.10;99.90;;;;;;4993342;28;20212;-86
2022/05/17 11:22:02;;;;;;;6.68;2.42;;;27.10;99.90;;;;;;4992287;28;20592;-88
2022/05/17 11:24:50;;;;;;;8.85;3.20;;;27.30;99.90;;;;;;5079771;23;20571;-86
2022/05/17 11:27:32;;;;;;;7.32;2.50;;;27.10;99.90;;;;;;4954205;29;20193;-86
2022/05/17 11:30:21;;;;;;;7.72;2.88;;;27.10;99.90;;;;;;4954923;29;20209;-85
2022/05/17 11:33:30;;;;;;;6.68;2.78;;;27.30;99.90;;;;;;4952192;29;20201;-87
2022/05/17 11:35:59;;;;;;;7.05;3.20;;;27.30;99.90;;;;;;4957342;28;20646;-84
2022/05/17 11:38:47;;;;;;;7.43;2.88;;;26.70;99.90;;;;;;4974345;28;20228;-86
2022/05/17 11:41:21;;;;;;;7.57;3.20;;;26.80;99.90;;;;;;4973006;28;20478;-86
2022/05/17 11:43:51;;;;;;;5.13;1.95;;;27.30;99.90;;;;;;4973061;28;20280;-86
2022/05/17 11:46:55;;;;;;;6.57;2.30;;;27.80;99.90;;;;;;4959267;28;20228;-85
2022/05/17 11:49:45;;;;;;;4.85;1.88;;;28.00;99.90;;;;;;4956391;29;20300;-86
2022/05/17 11:52:26;;;;;;;12.82;2.70;;;28.10;99.90;;;;;;4955206;29;20598;-84
2022/05/17 11:54:54;;;;;;;6.47;3.10;;;28.00;99.90;;;;;;4963748;28;20242;-87
2022/05/17 11:58:00;;;;;;;6.63;2.90;;;28.10;99.90;;;;;;4974363;28;20215;-88
2022/05/17 12:00:54;;;;;;;10.48;3.40;;;28.20;99.90;;;;;;4990564;28;20193;-85
2022/05/17 12:03:51;;;;;;;6.45;2.63;;;28.20;99.90;;;;;;4979960;28;20232;-84
2022/05/17 12:06:41;;;;;;;10.02;4.20;;;28.50;99.90;;;;;;4969856;28;20587;-85
2022/05/17 12:09:32;;;;;;;5.78;3.70;;;28.40;99.90;;;;;;4970881;28;20219;-85
2022/05/17 12:12:24;;;;;;;8.20;3.75;;;27.70;99.90;;;;;;4966244;28;20216;-85
2022/05/17 12:15:04;;;;;;;8.43;3.75;;;27.40;99.90;;;;;;4968787;28;20200;-87
2022/05/17 12:17:36;;;;;;;8.25;4.05;;;27.20;99.90;;;;;;4970871;28;20203;-88
2022/05/17 12:20:10;;;;;;;8.48;3.92;;;27.10;99.90;;;;;;4971275;28;20193;-86
2022/05/17 12:22:42;;;;;;;6.18;3.50;;;27.00;99.90;;;;;;4957021;28;20217;-89
2022/05/17 12:25:16;;;;;;;6.30;2.92;;;26.90;99.90;;;;;;4949373;29;20673;-88
2022/05/17 12:27:45;;;;;;;5.65;2.85;;;26.90;99.90;;;;;;4949634;28;20292;-88
2022/05/17 12:33:03;;;;;;;6.97;3.00;;;27.00;99.90;;;;;;4970240;28;20253;-84
2022/05/17 12:35:30;;;;;;;5.03;3.38;;;26.80;99.90;;;;;;4971018;28;20232;-85
2022/05/17 12:37:57;;;;;;;5.53;2.83;;;27.10;99.90;;;;;;4959784;28;20237;-87
2022/05/17 12:43:14;;;;;;;6.47;2.75;;;26.80;99.90;;;;;;4951568;29;20372;-88
2022/05/17 12:45:45;;;;;;;4.32;3.00;;;26.70;99.90;;;;;;4957010;28;20211;-84
2022/05/17 12:48:15;;;;;;;6.75;3.25;;;26.50;99.90;;;;;;4971434;28;20213;-88
2022/05/17 12:50:45;;;;;;;4.82;2.65;;;26.10;99.90;;;;;;4968794;28;20279;-86
2022/05/17 12:53:18;;;;;;;4.50;2.58;;;26.10;99.90;;;;;;4971026;28;20279;-83
2022/05/17 12:56:08;;;;;;;3.38;2.22;;;26.10;99.90;;;;;;4968917;28;20456;-86
2022/05/17 12:58:37;;;;;;;7.93;3.28;;;26.20;99.90;;;;;;4968943;28;20621;-84
2022/05/17 13:01:07;;;;;;;8.95;3.97;;;25.90;99.90;;;;;;4971270;28;20208;-87
2022/05/17 13:03:34;;;;;;;8.40;3.40;;;25.60;99.90;;;;;;4966782;28;20225;-88
2022/05/17 13:06:04;;;;;;;12.95;4.43;;;25.50;99.90;;;;;;4950771;29;20214;-85
2022/05/17 13:08:36;;;;;;;7.43;3.47;;;25.10;99.90;;;;;;4952308;29;20444;-83
2022/05/17 13:11:08;;;;;;;8.63;3.40;;;25.00;99.90;;;;;;4954615;28;20219;-86
2022/05/17 13:13:37;;;;;;;5.50;3.53;;;24.80;99.90;;;;;;4970193;28;20893;-85
2022/05/17 13:16:09;;;;;;;9.75;3.65;;;24.60;99.90;;;;;;4969169;28;20216;-86
2022/05/17 13:18:41;;;;;;;7.88;3.45;;;24.50;99.90;;;;;;4951025;29;20241;-86